createdAt,value
2022-08-26T00:00:48.066Z,21.63
2022-08-26T00:01:48.091Z,21.65
2022-08-26T00:02:48.038Z,21.60
2022-08-26T00:03:48.077Z,21.56
2022-08-26T00:04:48.031Z,21.54
2022-08-26T00:05:48.025Z,21.53
2022-08-26T00:06:49.024Z,21.51
2022-08-26T00:07:48.009Z,21.48
2022-08-26T00:08:47.959Z,21.50
2022-08-26T00:09:47.940Z,21.51
2022-08-26T00:10:48.152Z,21.45
2022-08-26T00:11:47.939Z,21.40
2022-08-26T00:12:48.769Z,21.35
2022-08-26T00:13:49.589Z,21.30
2022-08-26T00:14:48.221Z,21.29
2022-08-26T00:15:47.931Z,21.29
2022-08-26T00:16:49.012Z,21.25
2022-08-26T00:17:48.052Z,21.19
2022-08-26T00:18:48.474Z,21.15
2022-08-26T00:19:47.824Z,21.15
2022-08-26T00:20:47.855Z,21.14
2022-08-26T00:21:48.555Z,21.10
2022-08-26T00:22:47.783Z,21.10
2022-08-26T00:23:47.795Z,21.19
2022-08-26T00:24:48.530Z,21.29
2022-08-26T00:25:47.786Z,21.32
2022-08-26T00:26:47.727Z,21.33
2022-08-26T00:27:47.816Z,21.37
2022-08-26T00:28:48.126Z,21.40
2022-08-26T00:29:47.714Z,21.43
2022-08-26T00:30:47.950Z,21.44
2022-08-26T00:31:47.734Z,21.47
2022-08-26T00:32:47.923Z,21.50
2022-08-26T00:33:48.256Z,21.53
2022-08-26T00:34:48.076Z,21.56
2022-08-26T00:35:47.896Z,21.59
2022-08-26T00:36:50.878Z,21.62
2022-08-26T00:37:48.026Z,21.63
2022-08-26T00:38:47.696Z,21.62
2022-08-26T00:39:47.775Z,21.60
2022-08-26T00:40:47.600Z,21.62
2022-08-26T00:41:47.827Z,21.60
2022-08-26T00:42:47.840Z,21.58
2022-08-26T00:43:48.100Z,21.58
2022-08-26T00:44:48.277Z,21.56
2022-08-26T00:45:47.964Z,21.56
2022-08-26T00:46:48.375Z,21.58
2022-08-26T00:47:47.588Z,21.54
2022-08-26T00:48:48.000Z,21.54
2022-08-26T00:49:48.545Z,21.54
2022-08-26T00:50:47.674Z,21.53
2022-08-26T00:51:47.544Z,21.50
2022-08-26T00:52:48.273Z,21.48
2022-08-26T00:53:47.439Z,21.47
2022-08-26T00:54:47.668Z,21.43
2022-08-26T00:55:47.594Z,21.41
2022-08-26T00:56:47.570Z,21.40
2022-08-26T00:57:47.375Z,21.40
2022-08-26T00:58:47.443Z,21.38
2022-08-26T00:59:47.683Z,21.37
2022-08-26T01:00:47.507Z,21.35
2022-08-26T01:01:47.655Z,21.35
2022-08-26T01:02:47.569Z,21.32
2022-08-26T01:03:47.713Z,21.29
2022-08-26T01:04:47.647Z,21.26
2022-08-26T01:05:47.494Z,21.23
2022-08-26T01:06:47.628Z,21.20
2022-08-26T01:07:47.319Z,21.13
2022-08-26T01:08:47.522Z,21.04
2022-08-26T01:09:47.272Z,21.00
2022-08-26T01:10:47.730Z,20.95
2022-08-26T01:11:47.533Z,20.89
2022-08-26T01:12:47.529Z,20.86
2022-08-26T01:13:47.198Z,20.85
2022-08-26T01:14:47.337Z,20.85
2022-08-26T01:15:47.202Z,20.90
2022-08-26T01:16:47.331Z,20.96
2022-08-26T01:17:47.562Z,21.01
2022-08-26T01:18:47.560Z,21.07
2022-08-26T01:19:47.335Z,21.14
2022-08-26T01:20:47.427Z,21.17
2022-08-26T01:21:47.225Z,21.17
2022-08-26T01:22:47.194Z,21.20
2022-08-26T01:23:47.298Z,21.20
2022-08-26T01:24:47.255Z,21.15
2022-08-26T01:25:47.194Z,21.15
2022-08-26T01:26:47.361Z,21.14
2022-08-26T01:27:47.247Z,21.13
2022-08-26T01:28:50.623Z,21.07
2022-08-26T01:29:47.104Z,21.07
2022-08-26T01:30:47.267Z,21.07
2022-08-26T01:31:47.410Z,21.07
2022-08-26T01:32:47.098Z,21.04
2022-08-26T01:33:47.166Z,21.03
2022-08-26T01:34:47.254Z,21.03
2022-08-26T01:35:47.107Z,21.01
2022-08-26T01:36:51.171Z,20.98
2022-08-26T01:37:47.234Z,20.95
2022-08-26T01:38:47.118Z,20.95
2022-08-26T01:39:47.135Z,20.90
2022-08-26T01:40:47.065Z,20.90
2022-08-26T01:41:47.262Z,20.86
2022-08-26T01:42:48.466Z,20.83
2022-08-26T01:43:46.905Z,20.82
2022-08-26T01:44:47.124Z,20.82
2022-08-26T01:45:47.065Z,20.78
2022-08-26T01:46:47.904Z,20.73
2022-08-26T01:47:47.155Z,20.68
2022-08-26T01:48:47.208Z,20.64
2022-08-26T01:49:47.284Z,20.60
2022-08-26T01:50:46.952Z,20.60
2022-08-26T01:51:47.073Z,20.63
2022-08-26T01:52:49.883Z,20.66
2022-08-26T01:53:46.988Z,20.68
2022-08-26T01:54:50.542Z,20.68
2022-08-26T01:55:47.000Z,20.73
2022-08-26T01:56:46.964Z,20.71
2022-08-26T01:57:46.795Z,20.70
2022-08-26T01:58:46.786Z,20.74
2022-08-26T01:59:46.895Z,20.74
2022-08-26T02:00:47.520Z,20.74
2022-08-26T02:01:46.783Z,20.73
2022-08-26T02:02:46.778Z,20.68
2022-08-26T02:03:46.701Z,20.63
2022-08-26T02:04:46.704Z,20.66
2022-08-26T02:05:46.744Z,20.70
2022-08-26T02:06:46.817Z,20.74
2022-08-26T02:07:46.772Z,20.74
2022-08-26T02:08:46.630Z,20.75
2022-08-26T02:09:46.706Z,20.74
2022-08-26T02:10:46.659Z,20.75
2022-08-26T02:11:46.606Z,20.75
2022-08-26T02:12:46.752Z,20.66
2022-08-26T02:13:46.638Z,20.63
2022-08-26T02:14:46.506Z,20.59
2022-08-26T02:15:46.513Z,20.58
2022-08-26T02:16:46.591Z,20.56
2022-08-26T02:17:46.548Z,20.52
2022-08-26T02:18:47.021Z,20.46
2022-08-26T02:19:46.640Z,20.49
2022-08-26T02:20:46.549Z,20.48
2022-08-26T02:21:46.484Z,20.44
2022-08-26T02:22:46.450Z,20.39
2022-08-26T02:23:46.527Z,20.37
2022-08-26T02:24:47.083Z,20.37
2022-08-26T02:25:46.559Z,20.39
2022-08-26T02:26:46.578Z,20.40
2022-08-26T02:27:46.492Z,20.42
2022-08-26T02:28:46.488Z,20.46
2022-08-26T02:29:46.460Z,20.49
2022-08-26T02:30:46.630Z,20.44
2022-08-26T02:31:46.550Z,20.48
2022-08-26T02:32:49.563Z,20.52
2022-08-26T02:33:46.332Z,20.56
2022-08-26T02:34:46.332Z,20.56
2022-08-26T02:35:46.258Z,20.58
2022-08-26T02:36:46.379Z,20.58
2022-08-26T02:37:46.282Z,20.50
2022-08-26T02:38:46.544Z,20.46
2022-08-26T02:39:46.264Z,20.36
2022-08-26T02:40:46.194Z,20.39
2022-08-26T02:41:46.433Z,20.46
2022-08-26T02:42:46.269Z,20.44
2022-08-26T02:43:46.480Z,20.37
2022-08-26T02:44:46.368Z,20.34
2022-08-26T02:45:46.163Z,20.32
2022-08-26T02:46:47.244Z,20.24
2022-08-26T02:47:46.142Z,20.22
2022-08-26T02:48:46.218Z,20.21
2022-08-26T02:49:47.201Z,20.24
2022-08-26T02:50:46.109Z,20.27
2022-08-26T02:51:46.216Z,20.30
2022-08-26T02:52:46.150Z,20.33
2022-08-26T02:53:46.120Z,20.37
2022-08-26T02:54:46.186Z,20.37
2022-08-26T02:55:46.076Z,20.33
2022-08-26T02:56:46.035Z,20.29
2022-08-26T02:57:46.051Z,20.29
2022-08-26T02:58:47.076Z,20.30
2022-08-26T02:59:46.078Z,20.30
2022-08-26T03:00:52.603Z,20.33
2022-08-26T03:01:46.162Z,20.33
2022-08-26T03:02:45.965Z,20.34
2022-08-26T03:03:45.985Z,20.29
2022-08-26T03:04:57.820Z,20.24
2022-08-26T03:05:46.203Z,20.26
2022-08-26T03:06:47.035Z,20.27
2022-08-26T03:07:46.272Z,20.27
2022-08-26T03:08:45.921Z,20.27
2022-08-26T03:09:45.892Z,20.27
2022-08-26T03:10:45.967Z,20.24
2022-08-26T03:11:45.958Z,20.24
2022-08-26T03:12:47.433Z,20.19
2022-08-26T03:13:45.859Z,20.19
2022-08-26T03:14:45.989Z,20.18
2022-08-26T03:15:46.028Z,20.18
2022-08-26T03:16:48.434Z,20.18
2022-08-26T03:17:45.900Z,20.21
2022-08-26T03:18:51.978Z,20.21
2022-08-26T03:19:45.789Z,20.21
2022-08-26T03:20:45.968Z,20.18
2022-08-26T03:21:47.400Z,20.18
2022-08-26T03:22:45.897Z,20.15
2022-08-26T03:23:46.091Z,20.11
2022-08-26T03:24:46.619Z,20.08
2022-08-26T03:25:45.759Z,20.04
2022-08-26T03:26:52.920Z,20.00
2022-08-26T03:27:46.006Z,19.97
2022-08-26T03:28:46.626Z,19.93
2022-08-26T03:29:45.793Z,19.90
2022-08-26T03:30:45.936Z,19.85
2022-08-26T03:31:46.875Z,19.79
2022-08-26T03:32:45.803Z,19.78
2022-08-26T03:33:45.756Z,19.67
2022-08-26T03:34:45.737Z,19.70
2022-08-26T03:35:45.638Z,19.59
2022-08-26T03:36:46.035Z,19.48
2022-08-26T03:37:45.833Z,19.44
2022-08-26T03:38:45.592Z,19.38
2022-08-26T03:39:45.526Z,19.30
2022-08-26T03:40:45.986Z,19.27
2022-08-26T03:41:46.651Z,19.26
2022-08-26T03:42:45.749Z,19.34
2022-08-26T03:43:45.571Z,19.32
2022-08-26T03:44:45.636Z,19.27
2022-08-26T03:45:46.087Z,19.20
2022-08-26T03:46:45.667Z,19.16
2022-08-26T03:47:45.532Z,19.15
2022-08-26T03:48:45.807Z,19.11
2022-08-26T03:49:45.649Z,19.09
2022-08-26T03:50:45.436Z,19.07
2022-08-26T03:51:45.479Z,19.01
2022-08-26T03:52:45.627Z,19.00
2022-08-26T03:53:45.477Z,18.97
2022-08-26T03:54:45.538Z,18.92
2022-08-26T03:55:45.797Z,18.85
2022-08-26T03:56:46.560Z,18.82
2022-08-26T03:57:45.495Z,18.78
2022-08-26T03:58:45.869Z,18.73
2022-08-26T03:59:45.373Z,18.67
2022-08-26T04:00:46.134Z,18.60
2022-08-26T04:01:45.516Z,18.57
2022-08-26T04:02:45.404Z,18.53
2022-08-26T04:03:45.291Z,18.51
2022-08-26T04:04:45.257Z,18.48
2022-08-26T04:05:45.257Z,18.49
2022-08-26T04:06:45.356Z,18.49
2022-08-26T04:07:45.343Z,18.48
2022-08-26T04:08:45.394Z,18.46
2022-08-26T04:09:45.235Z,18.45
2022-08-26T04:10:45.429Z,18.43
2022-08-26T04:11:45.399Z,18.41
2022-08-26T04:12:45.601Z,18.39
2022-08-26T04:13:45.427Z,18.34
2022-08-26T04:14:45.155Z,18.30
2022-08-26T04:15:45.337Z,18.27
2022-08-26T04:16:45.218Z,18.24
2022-08-26T04:17:45.304Z,18.21
2022-08-26T04:18:46.664Z,18.15
2022-08-26T04:19:45.089Z,18.13
2022-08-26T04:20:45.099Z,18.15
2022-08-26T04:21:45.075Z,18.13
2022-08-26T04:22:45.060Z,18.13
2022-08-26T04:23:47.066Z,18.08
2022-08-26T04:24:45.105Z,18.02
2022-08-26T04:25:45.019Z,18.02
2022-08-26T04:26:44.987Z,18.00
2022-08-26T04:27:44.977Z,17.98
2022-08-26T04:28:45.032Z,18.00
2022-08-26T04:29:44.967Z,18.05
2022-08-26T04:30:45.115Z,18.09
2022-08-26T04:31:45.066Z,18.09
2022-08-26T04:32:44.946Z,18.08
2022-08-26T04:33:44.983Z,18.08
2022-08-26T04:34:45.065Z,18.09
2022-08-26T04:35:44.896Z,18.06
2022-08-26T04:36:45.072Z,18.03
2022-08-26T04:37:45.147Z,18.00
2022-08-26T04:38:44.891Z,18.00
2022-08-26T04:39:44.854Z,17.98
2022-08-26T04:40:46.745Z,18.00
2022-08-26T04:41:44.873Z,18.00
2022-08-26T04:42:44.871Z,17.97
2022-08-26T04:43:44.821Z,17.95
2022-08-26T04:44:45.856Z,17.94
2022-08-26T04:45:44.781Z,17.94
2022-08-26T04:46:44.838Z,17.95
2022-08-26T04:47:44.766Z,17.98
2022-08-26T04:48:48.473Z,18.03
2022-08-26T04:49:44.930Z,18.06
2022-08-26T04:50:44.934Z,18.06
2022-08-26T04:58:35.913Z,18.18
2022-08-26T05:32:46.967Z,19.01
2022-08-26T05:33:47.951Z,19.04
2022-08-26T05:34:47.877Z,19.11
2022-08-26T05:35:47.933Z,19.22
2022-08-26T05:36:47.853Z,19.29
2022-08-26T05:37:48.096Z,19.32
2022-08-26T05:38:47.833Z,19.39
2022-08-26T05:39:51.019Z,19.49
2022-08-26T05:40:47.868Z,19.57
2022-08-26T05:41:47.811Z,19.64
2022-08-26T05:42:47.812Z,19.70
2022-08-26T05:43:47.823Z,19.75
2022-08-26T05:44:55.703Z,19.77
2022-08-26T05:45:47.754Z,19.79
2022-08-26T05:46:47.800Z,19.82
2022-08-26T05:47:47.727Z,19.87
2022-08-26T05:48:47.832Z,19.93
2022-08-26T05:49:49.471Z,19.96
2022-08-26T05:50:47.708Z,19.99
2022-08-26T05:51:48.101Z,20.00
2022-08-26T05:52:47.654Z,20.03
2022-08-26T05:53:54.770Z,20.08
2022-08-26T05:54:47.832Z,20.14
2022-08-26T05:55:47.702Z,20.17
2022-08-26T05:56:47.628Z,20.19
2022-08-26T05:57:47.815Z,20.19
2022-08-26T05:58:47.795Z,20.19
2022-08-26T05:59:47.581Z,20.22
2022-08-26T06:00:48.536Z,20.24
2022-08-26T06:01:47.689Z,20.24
2022-08-26T06:02:48.427Z,20.29
2022-08-26T06:03:47.592Z,20.30
2022-08-26T06:04:47.549Z,20.33
2022-08-26T06:05:47.538Z,20.33
2022-08-26T06:06:47.509Z,20.36
2022-08-26T06:07:47.552Z,20.39
2022-08-26T06:08:47.498Z,20.39
2022-08-26T06:09:47.501Z,20.42
2022-08-26T06:10:47.459Z,20.40
2022-08-26T06:11:47.444Z,20.44
2022-08-26T06:12:47.445Z,20.49
2022-08-26T06:13:47.487Z,20.50
2022-08-26T06:14:49.025Z,20.55
2022-08-26T06:15:47.615Z,20.58
2022-08-26T06:16:47.481Z,20.58
2022-08-26T06:17:47.498Z,20.59
2022-08-26T06:18:47.689Z,20.60
2022-08-26T06:21:04.038Z,20.66
2022-08-26T06:22:04.484Z,20.67
2022-08-26T06:23:04.597Z,20.70
2022-08-26T06:24:04.505Z,20.73
2022-08-26T06:25:04.412Z,20.74
2022-08-26T06:26:04.430Z,20.77
2022-08-26T06:27:04.466Z,20.80
2022-08-26T06:28:04.416Z,20.83
2022-08-26T06:29:04.341Z,20.86
2022-08-26T06:30:04.346Z,20.89
2022-08-26T06:31:04.550Z,20.90
2022-08-26T06:32:04.348Z,20.92
2022-08-26T06:33:04.431Z,20.96
2022-08-26T06:34:07.367Z,20.96
2022-08-26T06:35:04.309Z,20.98
2022-08-26T06:36:05.014Z,21.01
2022-08-26T06:37:04.333Z,21.03
2022-08-26T06:38:04.721Z,21.03
2022-08-26T06:39:04.234Z,21.04
2022-08-26T06:40:04.718Z,21.04
2022-08-26T06:41:04.375Z,21.05
2022-08-26T06:42:06.256Z,21.07
2022-08-26T06:43:04.383Z,21.10
2022-08-26T06:44:04.352Z,21.11
2022-08-26T06:45:04.450Z,21.14
2022-08-26T06:46:04.989Z,21.14
2022-08-26T06:47:04.398Z,21.14
2022-08-26T06:48:04.973Z,21.15
2022-08-26T06:49:04.209Z,21.20
2022-08-26T06:50:04.360Z,21.22
2022-08-26T06:51:04.212Z,21.23
2022-08-26T06:52:04.229Z,21.25
2022-08-26T06:53:04.337Z,21.28
2022-08-26T06:54:04.084Z,21.29
2022-08-26T06:55:04.118Z,21.33
2022-08-26T06:56:04.388Z,21.33
2022-08-26T06:57:04.107Z,21.40
2022-08-26T06:58:05.178Z,21.41
2022-08-26T06:59:04.295Z,21.41
2022-08-26T07:00:04.081Z,21.43
2022-08-26T07:01:11.201Z,21.45
2022-08-26T07:02:04.844Z,21.47
2022-08-26T07:03:07.555Z,21.50
2022-08-26T07:04:04.375Z,21.54
2022-08-26T07:05:04.159Z,21.60
2022-08-26T07:06:04.289Z,21.63
2022-08-26T07:07:04.139Z,21.70
2022-08-26T07:08:04.089Z,21.72
2022-08-26T07:09:04.245Z,21.75
2022-08-26T07:10:04.180Z,21.83
2022-08-26T07:11:04.162Z,21.94
2022-08-26T07:12:03.946Z,21.99
2022-08-26T07:13:04.084Z,22.07
2022-08-26T07:14:04.369Z,22.22
2022-08-26T07:15:03.969Z,22.30
2022-08-26T07:16:04.509Z,22.34
2022-08-26T07:17:03.996Z,22.36
2022-08-26T07:18:03.868Z,22.40
2022-08-26T07:19:10.988Z,22.44
2022-08-26T07:20:03.829Z,22.52
2022-08-26T07:21:03.806Z,22.61
2022-08-26T07:22:04.242Z,22.62
2022-08-26T07:23:03.762Z,22.41
2022-08-26T07:24:03.765Z,22.25
2022-08-26T07:25:03.818Z,22.14
2022-08-26T07:26:03.814Z,22.06
2022-08-26T07:27:03.705Z,21.92
2022-08-26T07:28:03.713Z,21.92
2022-08-26T07:29:03.686Z,21.91
2022-08-26T07:30:03.686Z,21.85
2022-08-26T07:31:03.772Z,21.83
2022-08-26T07:32:03.752Z,21.84
2022-08-26T07:33:03.667Z,21.89
2022-08-26T07:34:03.633Z,21.85
2022-08-26T07:35:03.637Z,21.85
2022-08-26T07:36:04.164Z,21.91
2022-08-26T07:37:03.641Z,21.88
2022-08-26T07:38:03.673Z,21.84
2022-08-26T07:39:03.641Z,21.88
2022-08-26T07:40:03.620Z,21.92
2022-08-26T07:41:03.625Z,21.89
2022-08-26T07:42:07.393Z,21.92
2022-08-26T07:43:03.566Z,21.96
2022-08-26T07:44:04.335Z,21.94
2022-08-26T07:45:03.820Z,21.91
2022-08-26T07:46:03.535Z,21.84
2022-08-26T07:47:03.520Z,21.85
2022-08-26T07:48:04.060Z,21.88
2022-08-26T07:49:03.557Z,21.85
2022-08-26T07:50:03.512Z,21.85
2022-08-26T07:51:03.658Z,21.88
2022-08-26T07:52:03.462Z,21.94
2022-08-26T07:53:04.563Z,21.94
2022-08-26T07:54:03.439Z,22.03
2022-08-26T07:55:03.416Z,22.00
2022-08-26T07:56:03.582Z,22.10
2022-08-26T07:57:05.136Z,22.14
2022-08-26T07:58:03.463Z,22.14
2022-08-26T07:59:04.331Z,22.19
2022-08-26T08:00:03.359Z,22.12
2022-08-26T08:01:03.406Z,22.06
2022-08-26T08:02:03.493Z,22.12
2022-08-26T08:03:03.527Z,22.12
2022-08-26T08:04:03.507Z,22.10
2022-08-26T08:05:03.424Z,22.16
2022-08-26T08:06:03.316Z,22.26
2022-08-26T08:07:03.316Z,22.36
2022-08-26T08:08:19.735Z,22.44
2022-08-26T08:09:03.321Z,22.52
2022-08-26T08:10:06.701Z,22.51
2022-08-26T08:11:03.331Z,22.46
2022-08-26T08:12:03.247Z,22.53
2022-08-26T08:13:03.203Z,22.67
2022-08-26T08:14:03.364Z,22.68
2022-08-26T08:15:03.244Z,22.63
2022-08-26T08:16:03.208Z,22.59
2022-08-26T08:17:04.038Z,22.58
2022-08-26T08:18:03.166Z,22.55
2022-08-26T08:19:03.807Z,22.59
2022-08-26T08:20:03.220Z,22.63
2022-08-26T08:21:20.931Z,22.61
2022-08-26T08:22:03.111Z,22.61
2022-08-26T08:23:03.140Z,22.56
2022-08-26T08:24:05.021Z,22.59
2022-08-26T08:25:03.094Z,22.63
2022-08-26T08:26:03.177Z,22.62
2022-08-26T08:27:03.063Z,22.62
2022-08-26T08:28:03.353Z,22.65
2022-08-26T08:29:03.045Z,22.58
2022-08-26T08:30:03.093Z,22.61
2022-08-26T08:31:03.385Z,22.55
2022-08-26T08:32:04.125Z,22.41
2022-08-26T08:33:03.491Z,22.36
2022-08-26T08:34:03.065Z,22.38
2022-08-26T08:35:03.035Z,22.37
2022-08-26T08:36:02.997Z,22.40
2022-08-26T08:37:04.376Z,22.44
2022-08-26T08:38:04.293Z,22.43
2022-08-26T08:39:03.042Z,22.43
2022-08-26T08:40:02.982Z,22.36
2022-08-26T08:41:05.535Z,22.26
2022-08-26T08:42:02.886Z,22.26
2022-08-26T08:43:02.886Z,22.28
2022-08-26T08:44:02.937Z,22.28
2022-08-26T08:45:02.925Z,22.33
2022-08-26T08:46:02.973Z,22.36
2022-08-26T08:47:03.129Z,22.38
2022-08-26T08:48:02.877Z,22.46
2022-08-26T08:49:02.946Z,22.46
2022-08-26T08:50:02.888Z,22.49
2022-08-26T08:51:03.475Z,22.46
2022-08-26T08:52:02.925Z,22.49
2022-08-26T08:53:02.825Z,22.44
2022-08-26T08:54:03.065Z,22.37
2022-08-26T08:55:02.826Z,22.37
2022-08-26T08:56:02.786Z,22.41
2022-08-26T08:57:02.762Z,22.43
2022-08-26T08:58:02.791Z,22.33
2022-08-26T08:59:02.755Z,22.25
2022-08-26T09:00:02.693Z,22.22
2022-08-26T09:01:02.732Z,22.16
2022-08-26T09:02:03.069Z,22.21
2022-08-26T09:03:02.691Z,22.21
2022-08-26T09:04:02.627Z,22.10
2022-08-26T09:05:02.674Z,22.04
2022-08-26T09:06:03.476Z,21.99
2022-08-26T09:07:02.764Z,21.97
2022-08-26T09:08:02.860Z,22.00
2022-08-26T09:09:02.653Z,22.00
2022-08-26T09:10:02.658Z,22.03
2022-08-26T09:11:02.605Z,22.01
2022-08-26T09:12:02.793Z,21.92
2022-08-26T09:13:02.676Z,21.88
2022-08-26T09:14:02.587Z,21.85
2022-08-26T09:15:03.630Z,21.77
2022-08-26T09:16:02.527Z,21.75
2022-08-26T09:17:02.621Z,21.77
2022-08-26T09:18:02.541Z,21.80
2022-08-26T09:19:02.496Z,21.80
2022-08-26T09:20:02.809Z,21.89
2022-08-26T09:21:03.309Z,22.00
2022-08-26T09:22:06.979Z,22.04
2022-08-26T09:23:02.492Z,22.06
2022-08-26T09:24:02.438Z,22.15
2022-08-26T09:25:02.404Z,22.19
2022-08-26T09:26:02.542Z,22.15
2022-08-26T09:27:02.406Z,22.12
2022-08-26T09:28:02.626Z,22.16
2022-08-26T09:29:02.383Z,22.26
2022-08-26T09:30:02.372Z,22.43
2022-08-26T09:31:03.517Z,22.44
2022-08-26T09:32:02.391Z,22.28
2022-08-26T09:33:02.335Z,22.10
2022-08-26T09:34:02.364Z,21.92
2022-08-26T09:35:02.389Z,21.84
2022-08-26T09:36:02.405Z,21.74
2022-08-26T09:37:04.527Z,21.69
2022-08-26T09:38:02.388Z,21.66
2022-08-26T09:39:02.288Z,21.81
2022-08-26T09:40:02.521Z,21.84
2022-08-26T09:41:02.303Z,21.94
2022-08-26T09:42:02.349Z,21.88
2022-08-26T09:43:02.230Z,21.89
2022-08-26T09:44:02.300Z,21.88
2022-08-26T09:45:02.324Z,21.92
2022-08-26T09:46:02.318Z,21.99
2022-08-26T09:47:02.215Z,22.10
2022-08-26T09:48:02.315Z,22.31
2022-08-26T09:49:02.204Z,22.38
2022-08-26T09:50:03.323Z,22.52
2022-08-26T09:51:02.199Z,22.62
2022-08-26T09:52:02.436Z,22.61
2022-08-26T09:53:02.213Z,22.53
2022-08-26T09:54:02.312Z,22.44
2022-08-26T09:55:02.164Z,22.49
2022-08-26T09:56:02.224Z,22.59
2022-08-26T09:57:02.135Z,22.81
2022-08-26T09:58:04.124Z,22.84
2022-08-26T09:59:02.337Z,22.93
2022-08-26T10:00:02.839Z,22.88
2022-08-26T10:01:03.053Z,22.83
2022-08-26T10:03:02.182Z,22.86
2022-08-26T10:04:02.056Z,22.81
2022-08-26T10:05:08.983Z,22.68
2022-08-26T10:06:02.002Z,22.65
2022-08-26T10:07:02.027Z,22.67
2022-08-26T10:08:02.025Z,22.61
2022-08-26T10:09:03.594Z,22.52
2022-08-26T10:10:02.012Z,22.51
2022-08-26T10:11:01.963Z,22.46
2022-08-26T10:12:01.953Z,22.46
2022-08-26T10:13:02.080Z,22.44
2022-08-26T10:14:01.967Z,22.52
2022-08-26T10:15:01.974Z,22.49
2022-08-26T10:16:01.874Z,22.51
2022-08-26T10:17:01.993Z,22.55
2022-08-26T10:18:01.983Z,22.65
2022-08-26T10:19:02.161Z,22.68
2022-08-26T10:20:02.263Z,22.70
2022-08-26T10:21:01.884Z,22.71
2022-08-26T10:22:02.132Z,22.76
2022-08-26T10:23:02.028Z,22.76
2022-08-26T10:24:01.985Z,22.77
2022-08-26T10:25:02.748Z,22.65
2022-08-26T10:26:02.079Z,22.78
2022-08-26T10:27:02.146Z,22.88
2022-08-26T10:28:01.895Z,22.70
2022-08-26T10:29:01.964Z,22.49
2022-08-26T10:30:01.957Z,22.51
2022-08-26T10:31:02.649Z,22.56
2022-08-26T10:32:03.592Z,22.61
2022-08-26T10:33:02.030Z,22.44
2022-08-26T10:34:01.791Z,22.34
2022-08-26T10:35:01.993Z,22.30
2022-08-26T10:36:01.964Z,22.26
2022-08-26T10:37:14.473Z,22.16
2022-08-26T10:38:01.987Z,22.21
2022-08-26T10:39:02.020Z,22.26
2022-08-26T10:40:01.710Z,22.22
2022-08-26T10:41:01.591Z,22.26
2022-08-26T10:42:01.643Z,22.41
2022-08-26T10:43:01.709Z,22.37
2022-08-26T10:44:01.825Z,22.30
2022-08-26T10:45:01.542Z,22.23
2022-08-26T10:46:01.623Z,22.16
2022-08-26T10:47:01.576Z,22.18
2022-08-26T10:48:01.590Z,22.16
2022-08-26T10:49:03.215Z,22.18
2022-08-26T10:50:03.430Z,22.18
2022-08-26T10:51:01.493Z,22.19
2022-08-26T10:52:01.585Z,22.26
2022-08-26T10:53:01.650Z,22.30
2022-08-26T10:54:01.688Z,22.41
2022-08-26T10:55:01.620Z,22.55
2022-08-26T10:56:01.537Z,22.52
2022-08-26T10:57:01.505Z,22.53
2022-08-26T10:58:05.031Z,22.56
2022-08-26T10:59:01.456Z,22.58
2022-08-26T11:00:01.703Z,22.55
2022-08-26T11:01:02.524Z,22.61
2022-08-26T11:02:03.859Z,22.51
2022-08-26T11:03:01.342Z,22.37
2022-08-26T11:04:01.398Z,22.31
2022-08-26T11:05:01.335Z,22.33
2022-08-26T11:06:01.333Z,22.40
2022-08-26T11:07:01.350Z,22.31
2022-08-26T11:08:01.407Z,22.31
2022-08-26T11:09:01.279Z,22.22
2022-08-26T11:10:01.301Z,22.34
2022-08-26T11:11:01.281Z,22.31
2022-08-26T11:12:09.991Z,22.36
2022-08-26T11:13:01.761Z,22.34
2022-08-26T11:14:01.311Z,22.37
2022-08-26T11:15:01.280Z,22.46
2022-08-26T11:16:01.409Z,22.52
2022-08-26T11:17:01.328Z,22.49
2022-08-26T11:18:01.158Z,22.51
2022-08-26T11:19:01.144Z,22.58
2022-08-26T11:20:03.887Z,22.59
2022-08-26T11:21:01.135Z,22.67
2022-08-26T11:22:01.157Z,22.62
2022-08-26T11:23:01.130Z,22.63
2022-08-26T11:24:01.135Z,22.67
2022-08-26T11:25:01.098Z,22.67
2022-08-26T11:26:01.158Z,22.73
2022-08-26T11:27:01.073Z,22.84
2022-08-26T11:28:01.135Z,22.91
2022-08-26T11:29:01.038Z,23.01
2022-08-26T11:30:01.066Z,23.11
2022-08-26T11:31:01.031Z,23.21
2022-08-26T11:32:01.111Z,23.28
2022-08-26T11:33:01.042Z,23.36
2022-08-26T11:34:01.057Z,23.51
2022-08-26T11:35:01.039Z,23.58
2022-08-26T11:36:00.985Z,23.56
2022-08-26T11:37:00.962Z,23.49
2022-08-26T11:38:01.015Z,23.47
2022-08-26T11:39:00.988Z,23.44
2022-08-26T11:40:01.010Z,23.51
2022-08-26T11:41:00.912Z,23.47
2022-08-26T11:42:00.914Z,23.36
2022-08-26T11:43:00.906Z,23.36
2022-08-26T11:44:01.299Z,23.37
2022-08-26T11:45:05.402Z,23.52
2022-08-26T11:46:00.954Z,23.62
2022-08-26T11:47:00.881Z,23.73
2022-08-26T11:48:00.898Z,23.85
2022-08-26T11:49:00.839Z,23.88
2022-08-26T11:50:00.843Z,24.01
2022-08-26T11:51:00.822Z,24.06
2022-08-26T11:52:00.849Z,24.21
2022-08-26T11:53:00.805Z,24.32
2022-08-26T11:54:00.776Z,24.36
2022-08-26T11:55:00.775Z,24.37
2022-08-26T11:56:01.304Z,24.59
2022-08-26T11:57:02.895Z,24.63
2022-08-26T11:58:00.752Z,24.65
2022-08-26T11:59:02.515Z,24.78
2022-08-26T12:00:00.714Z,24.81
2022-08-26T12:01:00.705Z,24.79
2022-08-26T12:02:00.760Z,24.71
2022-08-26T12:03:00.723Z,24.71
2022-08-26T12:04:01.503Z,24.75
2022-08-26T12:05:00.662Z,24.69
2022-08-26T12:06:00.655Z,24.61
2022-08-26T12:07:00.665Z,24.47
2022-08-26T12:08:00.689Z,24.50
2022-08-26T12:09:01.625Z,24.55
2022-08-26T12:10:00.648Z,24.66
2022-08-26T12:11:00.622Z,24.63
2022-08-26T12:12:00.606Z,24.68
2022-08-26T12:13:00.657Z,24.36
2022-08-26T12:14:00.617Z,24.22
2022-08-26T12:15:00.633Z,24.22
2022-08-26T12:16:00.675Z,24.00
2022-08-26T12:17:00.582Z,23.88
2022-08-26T12:18:00.507Z,23.92
2022-08-26T12:19:00.599Z,24.03
2022-08-26T12:20:00.577Z,23.95
2022-08-26T12:21:00.567Z,23.96
2022-08-26T12:22:00.527Z,24.09
2022-08-26T12:23:00.485Z,24.07
2022-08-26T12:24:00.465Z,24.04
2022-08-26T12:25:00.449Z,23.89
2022-08-26T12:26:00.625Z,23.92
2022-08-26T12:27:02.032Z,23.96
2022-08-26T12:28:00.485Z,23.84
2022-08-26T12:29:12.720Z,23.70
2022-08-26T12:30:00.406Z,23.71
2022-08-26T12:31:00.973Z,23.74
2022-08-26T12:32:00.897Z,23.73
2022-08-26T12:33:00.342Z,23.64
2022-08-26T12:34:00.385Z,23.48
2022-08-26T12:35:00.496Z,23.36
2022-08-26T12:36:00.514Z,23.29
2022-08-26T12:38:00.586Z,23.07
2022-08-26T12:39:00.400Z,23.06
2022-08-26T12:40:00.417Z,23.16
2022-08-26T12:41:00.372Z,23.13
2022-08-26T12:42:00.257Z,23.08
2022-08-26T12:43:00.483Z,23.10
2022-08-26T12:44:01.208Z,23.06
2022-08-26T12:45:00.500Z,23.07
2022-08-26T12:46:01.632Z,23.23
2022-08-26T12:47:00.262Z,23.28
2022-08-26T12:48:00.171Z,23.32
2022-08-26T12:49:00.163Z,23.18
2022-08-26T12:50:00.385Z,23.23
2022-08-26T12:51:00.250Z,23.36
2022-08-26T12:52:00.335Z,23.54
2022-08-26T12:53:00.582Z,23.52
2022-08-26T12:54:00.268Z,23.79
2022-08-26T12:55:00.264Z,23.79
2022-08-26T12:56:00.194Z,23.92
2022-08-26T12:57:00.186Z,24.06
2022-08-26T12:58:00.223Z,24.66
2022-08-26T12:59:00.229Z,24.99
2022-08-26T13:00:00.410Z,24.94
2022-08-26T13:01:00.549Z,24.94
2022-08-26T13:02:00.533Z,24.82
2022-08-26T13:03:00.179Z,24.88
2022-08-26T13:04:00.428Z,25.34
2022-08-26T13:05:01.041Z,25.25
2022-08-26T13:06:00.229Z,25.62
2022-08-26T13:07:00.130Z,25.92
2022-08-26T13:08:00.187Z,25.98
2022-08-26T13:09:01.733Z,25.48
2022-08-26T13:10:00.155Z,25.26
2022-08-26T13:10:59.972Z,25.52
2022-08-26T13:12:02.199Z,25.51
2022-08-26T13:12:59.943Z,25.30
2022-08-26T13:13:59.994Z,24.79
2022-08-26T13:15:00.006Z,24.63
2022-08-26T13:16:00.033Z,24.56
2022-08-26T13:16:59.940Z,24.62
2022-08-26T13:17:59.984Z,24.62
2022-08-26T13:19:00.158Z,24.55
2022-08-26T13:20:03.562Z,24.69
2022-08-26T13:20:59.809Z,24.82
2022-08-26T13:21:59.889Z,24.96
2022-08-26T13:22:59.946Z,24.78
2022-08-26T13:23:59.823Z,24.68
2022-08-26T13:24:59.876Z,24.85
2022-08-26T13:25:59.911Z,24.86
2022-08-26T13:26:59.806Z,25.18
2022-08-26T13:27:59.792Z,26.08
2022-08-26T13:29:02.179Z,26.33
2022-08-26T13:30:00.034Z,26.26
2022-08-26T13:30:59.813Z,26.46
2022-08-26T13:32:00.128Z,25.96
2022-08-26T13:32:59.877Z,25.86
2022-08-26T13:33:59.935Z,25.81
2022-08-26T13:34:59.907Z,25.74
2022-08-26T13:36:01.579Z,26.07